createdAt,value
2023-04-02T00:01:06.257Z,10.43
2023-04-02T00:03:45.885Z,10.42
2023-04-02T00:07:02.867Z,10.36
2023-04-02T00:10:03.413Z,10.40
2023-04-02T00:19:15.286Z,10.33
2023-04-02T00:25:27.901Z,10.37
2023-04-02T00:28:20.201Z,10.34
2023-04-02T00:31:33.424Z,10.35
2023-04-02T00:34:18.122Z,10.26
2023-04-02T00:37:00.899Z,10.32
2023-04-02T00:39:45.348Z,10.37
2023-04-02T00:42:44.435Z,10.35
2023-04-02T00:45:37.376Z,10.37
2023-04-02T00:48:34.462Z,10.32
2023-04-02T00:51:31.373Z,10.26
2023-04-02T00:54:01.816Z,10.25
2023-04-02T00:57:13.598Z,10.15
2023-04-02T01:00:44.645Z,10.20
2023-04-02T01:03:17.384Z,10.24
2023-04-02T01:05:58.646Z,10.12
2023-04-02T01:09:00.573Z,10.18
2023-04-02T01:12:36.943Z,10.15
2023-04-02T01:15:41.913Z,10.13
2023-04-02T01:18:24.594Z,10.06
2023-04-02T01:21:08.433Z,10.06
2023-04-02T01:24:39.740Z,9.98
2023-04-02T01:30:46.893Z,10.05
2023-04-02T01:33:16.188Z,10.06
2023-04-02T01:39:06.164Z,10.17
2023-04-02T01:41:48.045Z,10.20
2023-04-02T01:44:29.817Z,10.20
2023-04-02T01:47:43.993Z,10.21
2023-04-02T01:50:40.570Z,10.28
2023-04-02T01:53:11.099Z,10.21
2023-04-02T01:58:33.254Z,10.21
2023-04-02T02:09:28.614Z,10.16
2023-04-02T02:12:08.916Z,10.14
2023-04-02T02:15:29.456Z,10.08
2023-04-02T02:23:11.248Z,10.06
2023-04-02T02:29:44.899Z,10.13
2023-04-02T02:32:21.626Z,10.15
2023-04-02T02:38:57.711Z,10.16
2023-04-02T02:41:41.807Z,10.14
2023-04-02T02:44:09.571Z,10.17
2023-04-02T02:46:40.504Z,10.18
2023-04-02T02:49:14.477Z,10.14
2023-04-02T02:51:50.409Z,10.12
2023-04-02T02:54:25.465Z,10.16
2023-04-02T02:57:01.775Z,10.05
2023-04-02T02:59:30.990Z,10.06
2023-04-02T03:01:59.431Z,10.03
2023-04-02T03:04:26.716Z,10.03
2023-04-02T03:06:57.141Z,9.97
2023-04-02T03:09:46.686Z,9.87
2023-04-02T03:12:32.622Z,9.93
2023-04-02T03:15:21.212Z,9.95
2023-04-02T03:17:56.012Z,9.91
2023-04-02T03:20:38.622Z,9.94
2023-04-02T03:23:18.468Z,9.83
2023-04-02T03:25:47.742Z,9.91
2023-04-02T03:28:18.849Z,9.90
2023-04-02T03:31:00.420Z,9.79
2023-04-02T03:33:46.423Z,9.80
2023-04-02T03:36:30.926Z,9.84
2023-04-02T03:39:11.665Z,9.84
2023-04-02T03:41:45.234Z,9.88
2023-04-02T03:44:21.310Z,9.93
2023-04-02T03:46:57.390Z,9.93
2023-04-02T03:49:28.002Z,9.96
2023-04-02T03:52:06.082Z,9.99
2023-04-02T03:54:34.201Z,9.93
2023-04-02T03:57:01.262Z,9.94
2023-04-02T03:59:48.991Z,9.83
2023-04-02T04:02:26.269Z,9.84
2023-04-02T04:04:55.773Z,9.84
2023-04-02T04:07:35.800Z,9.74
2023-04-02T04:10:04.179Z,9.83
2023-04-02T04:12:36.463Z,9.80
2023-04-02T04:15:33.167Z,9.72
2023-04-02T04:18:34.702Z,9.74
2023-04-02T04:21:31.458Z,9.74
2023-04-02T04:24:21.679Z,9.71
2023-04-02T04:26:53.521Z,9.60
2023-04-02T04:30:06.840Z,9.70
2023-04-02T04:32:43.006Z,9.75
2023-04-02T04:35:24.797Z,9.73
2023-04-02T04:37:59.026Z,9.73
2023-04-02T04:40:28.978Z,9.78
2023-04-02T04:43:02.964Z,9.81
2023-04-02T04:45:37.811Z,9.71
2023-04-02T04:48:13.929Z,9.75
2023-04-02T04:50:54.156Z,9.73
2023-04-02T04:53:23.625Z,9.76
2023-04-02T04:55:55.109Z,9.77
2023-04-02T04:58:46.137Z,9.66
2023-04-02T05:01:37.749Z,9.63
2023-04-02T05:04:14.138Z,9.67
2023-04-02T05:06:53.157Z,9.67
2023-04-02T05:09:27.410Z,9.67
2023-04-02T05:12:15.308Z,9.59
2023-04-02T05:14:52.446Z,9.67
2023-04-02T05:17:23.512Z,9.69
2023-04-02T05:20:09.497Z,9.65
2023-04-02T05:22:57.407Z,9.64
2023-04-02T05:25:27.583Z,9.75
2023-04-02T05:28:48.746Z,9.64
2023-04-02T05:31:19.928Z,9.80
2023-04-02T05:33:48.793Z,9.87
2023-04-02T05:36:22.493Z,9.85
2023-04-02T05:38:53.663Z,9.91
2023-04-02T05:41:36.675Z,9.81
2023-04-02T05:44:26.521Z,9.75
2023-04-02T05:47:06.654Z,9.80
2023-04-02T05:50:03.628Z,9.81
2023-04-02T05:52:36.359Z,9.80
2023-04-02T05:55:19.912Z,9.71
2023-04-02T05:58:10.428Z,9.79
2023-04-02T06:00:39.647Z,9.82
2023-04-02T06:03:24.099Z,9.82
2023-04-02T06:05:53.942Z,9.86
2023-04-02T06:08:23.877Z,9.87
2023-04-02T06:10:55.740Z,9.87
2023-04-02T06:13:25.162Z,9.86
2023-04-02T06:15:52.032Z,9.88
2023-04-02T06:18:26.361Z,9.90
2023-04-02T06:20:54.492Z,9.91
2023-04-02T06:23:30.889Z,9.94
2023-04-02T06:26:03.734Z,9.93
2023-04-02T06:28:53.971Z,9.86
2023-04-02T06:31:38.344Z,9.91
2023-04-02T06:34:14.290Z,9.95
2023-04-02T06:36:56.139Z,9.95
2023-04-02T06:39:28.010Z,10.00
2023-04-02T06:42:37.920Z,10.02
2023-04-02T06:45:24.314Z,10.05
2023-04-02T06:48:17.039Z,10.11
2023-04-02T06:50:51.066Z,10.17
2023-04-02T06:53:24.492Z,10.18
2023-04-02T06:56:03.581Z,10.20
2023-04-02T06:58:31.802Z,10.28
2023-04-02T07:00:59.095Z,10.30
2023-04-02T07:03:34.355Z,10.29
2023-04-02T07:06:22.285Z,10.30
2023-04-02T07:08:51.582Z,10.30
2023-04-02T07:11:21.916Z,10.33
2023-04-02T07:13:51.108Z,10.37
2023-04-02T07:16:21.112Z,10.37
2023-04-02T07:18:49.137Z,10.40
2023-04-02T07:21:16.444Z,10.43
2023-04-02T07:23:44.906Z,10.44
2023-04-02T07:26:17.005Z,10.45
2023-04-02T07:28:44.152Z,10.47
2023-04-02T07:31:24.380Z,10.42
2023-04-02T07:33:52.416Z,10.46
2023-04-02T07:36:22.273Z,10.46
2023-04-02T07:38:49.324Z,10.47
2023-04-02T07:41:16.471Z,10.48
2023-04-02T07:43:43.334Z,10.49
2023-04-02T07:46:11.721Z,10.51
2023-04-02T07:48:39.150Z,10.51
2023-04-02T07:51:12.946Z,10.53
2023-04-02T07:53:40.039Z,10.51
2023-04-02T07:56:07.238Z,10.47
2023-04-02T07:58:34.117Z,10.47
2023-04-02T08:01:04.458Z,10.49
2023-04-02T08:03:31.245Z,10.49
2023-04-02T08:05:58.518Z,10.51
2023-04-02T08:08:25.798Z,10.52
2023-04-02T08:10:52.423Z,10.53
2023-04-02T08:13:19.402Z,10.57
2023-04-02T08:15:46.404Z,10.57
2023-04-02T08:18:13.170Z,10.56
2023-04-02T08:20:39.943Z,10.57
2023-04-02T08:23:15.379Z,10.55
2023-04-02T08:25:42.162Z,10.60
2023-04-02T08:28:08.886Z,10.60
2023-04-02T08:30:35.936Z,10.59
2023-04-02T08:33:03.295Z,10.61
2023-04-02T08:35:30.459Z,10.63
2023-04-02T08:37:57.302Z,10.65
2023-04-02T08:40:30.072Z,10.64
2023-04-02T08:43:23.572Z,10.61
2023-04-02T08:45:54.260Z,10.51
2023-04-02T08:48:21.393Z,10.58
2023-04-02T08:50:48.337Z,10.59
2023-04-02T08:53:19.055Z,10.59
2023-04-02T08:55:55.726Z,10.58
2023-04-02T08:58:46.578Z,10.61
2023-04-02T09:01:28.444Z,10.55
2023-04-02T09:03:58.268Z,10.61
2023-04-02T09:06:26.064Z,10.64
2023-04-02T09:08:53.394Z,10.62
2023-04-02T09:11:37.353Z,10.56
2023-04-02T09:14:13.170Z,10.61
2023-04-02T09:16:54.711Z,10.61
2023-04-02T09:19:39.058Z,10.63
2023-04-02T09:22:09.278Z,10.70
2023-04-02T09:24:37.708Z,10.72
2023-04-02T09:27:04.536Z,10.75
2023-04-02T09:29:45.833Z,10.71
2023-04-02T09:32:51.166Z,10.75
2023-04-02T09:35:39.797Z,10.80
2023-04-02T09:38:30.576Z,10.81
2023-04-02T09:40:58.494Z,10.83
2023-04-02T09:43:25.948Z,10.81
2023-04-02T09:46:05.778Z,10.73
2023-04-02T09:48:35.243Z,10.73
2023-04-02T09:51:22.000Z,10.74
2023-04-02T09:54:04.909Z,10.83
2023-04-02T09:56:34.298Z,10.89
2023-04-02T09:59:13.327Z,10.89
2023-04-02T10:01:41.000Z,10.90
2023-04-02T10:04:33.434Z,10.93
2023-04-02T10:07:00.198Z,11.06
2023-04-02T10:09:32.466Z,11.10
2023-04-02T10:12:00.660Z,11.15
2023-04-02T10:14:43.532Z,11.15
2023-04-02T10:17:25.460Z,11.18
2023-04-02T10:19:55.606Z,11.20
2023-04-02T10:22:23.192Z,11.23
2023-04-02T10:24:50.887Z,11.23
2023-04-02T10:27:25.650Z,11.24
2023-04-02T10:30:19.317Z,11.19
2023-04-02T10:32:58.273Z,11.03
2023-04-02T10:35:34.601Z,11.11
2023-04-02T10:38:07.672Z,10.74
2023-04-02T10:40:43.568Z,10.24
2023-04-02T10:43:41.535Z,10.14
2023-04-02T10:46:27.236Z,9.89
2023-04-02T10:49:03.062Z,9.90
2023-04-02T10:51:55.429Z,9.73
2023-04-02T10:54:32.984Z,9.73
2023-04-02T10:57:09.211Z,9.62
2023-04-02T10:59:39.963Z,9.72
2023-04-02T11:02:24.673Z,9.57
2023-04-02T11:04:53.960Z,9.63
2023-04-02T11:07:24.726Z,9.63
2023-04-02T11:09:53.830Z,9.58
2023-04-02T11:12:24.426Z,9.57
2023-04-02T11:14:52.135Z,9.54
2023-04-02T11:17:19.079Z,9.42
2023-04-02T11:19:45.998Z,9.56
2023-04-02T11:22:18.229Z,9.54
2023-04-02T11:24:52.568Z,9.42
2023-04-02T11:27:26.141Z,9.49
2023-04-02T11:29:58.759Z,9.47
2023-04-02T11:32:28.984Z,9.43
2023-04-02T11:35:06.412Z,9.40
2023-04-02T11:37:39.818Z,9.40
2023-04-02T11:40:35.194Z,9.19
2023-04-02T11:43:34.421Z,9.19
2023-04-02T11:46:17.075Z,9.32
2023-04-02T11:48:43.871Z,9.34
2023-04-02T11:51:23.104Z,9.41
2023-04-02T11:53:52.091Z,9.47
2023-04-02T11:56:37.347Z,9.27
2023-04-02T11:59:30.677Z,9.17
2023-04-02T12:02:19.447Z,9.07
2023-04-02T12:05:05.142Z,9.03
2023-04-02T12:08:05.756Z,9.19
2023-04-02T12:10:34.432Z,9.26
2023-04-02T12:13:01.328Z,9.32
2023-04-02T12:15:42.386Z,9.29
2023-04-02T12:18:21.851Z,9.25
2023-04-02T12:20:55.151Z,9.29
2023-04-02T12:23:35.547Z,9.31
2023-04-02T12:26:07.253Z,9.28
2023-04-02T12:28:34.565Z,9.30
2023-04-02T12:31:05.801Z,9.32
2023-04-02T12:33:37.282Z,9.39
2023-04-02T12:36:06.707Z,9.15
2023-04-02T12:38:36.713Z,9.13
2023-04-02T12:41:05.769Z,9.26
2023-04-02T12:43:34.682Z,9.19
2023-04-02T12:46:04.699Z,9.28
2023-04-02T12:48:32.012Z,9.33
2023-04-02T12:50:58.919Z,9.43
2023-04-02T12:53:40.303Z,9.35
2023-04-02T12:56:08.457Z,9.33
2023-04-02T12:58:40.646Z,9.38
2023-04-02T13:01:18.913Z,9.22
2023-04-02T13:04:12.117Z,9.23
2023-04-02T13:06:41.275Z,9.27
2023-04-02T13:09:36.754Z,9.22
2023-04-02T13:12:03.903Z,9.30
2023-04-02T13:14:31.045Z,9.30
2023-04-02T13:16:57.803Z,9.25
2023-04-02T13:19:31.906Z,9.28
2023-04-02T13:22:00.578Z,9.23
2023-04-02T13:24:32.269Z,9.21
2023-04-02T13:27:01.104Z,9.15
2023-04-02T13:29:30.300Z,9.13
2023-04-02T13:32:05.485Z,8.99
2023-04-02T13:34:32.228Z,9.00
2023-04-02T13:36:59.157Z,9.15
2023-04-02T13:39:26.990Z,9.07
2023-04-02T13:41:57.591Z,9.16
2023-04-02T13:44:34.495Z,9.06
2023-04-02T13:47:01.392Z,9.17
2023-04-02T13:49:28.550Z,9.17
2023-04-02T13:52:00.154Z,9.10
2023-04-02T13:54:31.186Z,9.28
2023-04-02T13:56:58.015Z,9.07
2023-04-02T13:59:26.013Z,9.15
2023-04-02T14:01:56.363Z,9.23
2023-04-02T14:04:28.109Z,9.16
2023-04-02T14:07:28.324Z,9.13
2023-04-02T14:10:22.097Z,9.09
2023-04-02T14:13:19.947Z,9.14
2023-04-02T14:16:10.283Z,9.24
2023-04-02T14:18:53.281Z,9.15
2023-04-02T14:21:41.198Z,9.02
2023-04-02T14:24:41.853Z,9.14
2023-04-02T14:27:37.933Z,9.09
2023-04-02T14:30:31.415Z,9.08
2023-04-02T14:33:26.997Z,9.22
2023-04-02T14:35:59.815Z,9.20
2023-04-02T14:38:35.173Z,9.03
2023-04-02T14:41:09.934Z,8.95
2023-04-02T14:43:45.972Z,8.94
2023-04-02T14:46:12.827Z,9.04
2023-04-02T14:49:00.989Z,9.08
2023-04-02T14:51:36.582Z,9.17
2023-04-02T14:54:08.601Z,9.23
2023-04-02T14:56:40.678Z,9.11
2023-04-02T14:59:19.398Z,9.01
2023-04-02T15:01:49.521Z,8.99
2023-04-02T15:04:31.406Z,8.96
2023-04-02T15:07:03.575Z,8.86
2023-04-02T15:09:36.617Z,8.85
2023-04-02T15:12:20.788Z,8.78
2023-04-02T15:14:49.186Z,8.85
2023-04-02T15:17:16.180Z,8.88
2023-04-02T15:19:42.831Z,8.81
2023-04-02T15:22:27.499Z,8.93
2023-04-02T15:25:22.164Z,8.84
2023-04-02T15:27:51.924Z,8.78
2023-04-02T15:30:35.690Z,8.84
2023-04-02T15:33:27.685Z,8.65
2023-04-02T15:36:32.491Z,8.78
2023-04-02T15:39:17.938Z,8.71
2023-04-02T15:42:09.626Z,8.64
2023-04-02T15:44:44.527Z,8.57
2023-04-02T15:47:19.637Z,8.42
2023-04-02T15:49:49.299Z,8.53
2023-04-02T15:52:25.482Z,8.40
2023-04-02T15:55:35.588Z,8.47
2023-04-02T15:58:24.804Z,8.46
2023-04-02T16:01:00.924Z,8.35
2023-04-02T16:03:51.060Z,8.41
2023-04-02T16:06:25.841Z,8.31
2023-04-02T16:09:16.097Z,8.18
2023-04-02T16:11:42.820Z,8.19
2023-04-02T16:14:23.845Z,8.19
2023-04-02T16:16:51.936Z,8.20
2023-04-02T16:19:32.579Z,8.19
2023-04-02T16:22:17.861Z,8.13
2023-04-02T16:24:46.798Z,7.99
2023-04-02T16:27:27.074Z,7.94
2023-04-02T16:30:18.508Z,7.88
2023-04-02T16:32:50.768Z,7.87
2023-04-02T16:35:41.779Z,7.82
2023-04-02T16:38:24.906Z,7.77
2023-04-02T16:41:08.290Z,7.66
2023-04-02T16:44:20.155Z,7.55
2023-04-02T16:47:16.023Z,7.65
2023-04-02T16:50:03.944Z,7.77
2023-04-02T16:52:59.202Z,7.59
2023-04-02T16:55:47.066Z,7.60
2023-04-02T16:58:46.331Z,7.64
2023-04-02T17:01:24.585Z,7.62
2023-04-02T17:04:13.101Z,7.56
2023-04-02T17:06:45.357Z,7.58
2023-04-02T17:09:41.420Z,7.43
2023-04-02T17:12:20.284Z,7.28
2023-04-02T17:14:58.669Z,7.36
2023-04-02T17:17:25.444Z,7.52
2023-04-02T17:19:56.727Z,7.41
2023-04-02T17:22:23.651Z,7.42
2023-04-02T17:25:04.213Z,7.34
2023-04-02T17:27:37.838Z,7.31
2023-04-02T17:30:14.756Z,7.35
2023-04-02T17:32:41.438Z,7.44
2023-04-02T17:35:33.094Z,7.38
2023-04-02T17:38:10.158Z,7.27
2023-04-02T17:40:51.264Z,7.26
2023-04-02T17:43:39.348Z,7.41
2023-04-02T17:46:22.656Z,7.36
2023-04-02T17:48:55.191Z,7.45
2023-04-02T17:51:50.378Z,7.25
2023-04-02T17:54:47.925Z,7.23
2023-04-02T17:57:37.126Z,7.18
2023-04-02T18:00:19.246Z,7.19
2023-04-02T18:03:02.753Z,7.24
2023-04-02T18:05:48.078Z,7.05
2023-04-02T18:08:41.336Z,6.94
2023-04-02T18:11:30.979Z,6.94
2023-04-02T18:14:15.460Z,6.95
2023-04-02T18:16:57.472Z,6.99
2023-04-02T18:19:31.657Z,6.90
2023-04-02T18:22:12.641Z,6.95
2023-04-02T18:25:11.710Z,6.86
2023-04-02T18:27:54.780Z,6.84
2023-04-02T18:30:35.521Z,6.88
2023-04-02T18:33:41.538Z,6.83
2023-04-02T18:36:42.821Z,6.74
2023-04-02T18:39:24.208Z,6.80
2023-04-02T18:42:10.358Z,6.85
2023-04-02T18:44:48.789Z,6.85
2023-04-02T18:47:34.758Z,6.79
2023-04-02T18:50:13.330Z,6.81
2023-04-02T18:52:41.483Z,6.86
2023-04-02T18:55:28.889Z,6.77
2023-04-02T18:58:01.372Z,6.85
2023-04-02T19:00:34.403Z,6.91
2023-04-02T19:03:30.460Z,6.90
2023-04-02T19:06:05.093Z,6.99
2023-04-02T19:08:36.528Z,6.84
2023-04-02T19:11:28.691Z,6.83
2023-04-02T19:14:01.028Z,6.78
2023-04-02T19:17:01.539Z,6.49
2023-04-02T19:19:49.989Z,6.49
2023-04-02T19:22:41.062Z,6.62
2023-04-02T19:25:27.237Z,6.60
2023-04-02T19:28:16.711Z,6.59
2023-04-02T19:30:59.278Z,6.49
2023-04-02T19:33:28.659Z,6.59
2023-04-02T19:35:58.938Z,6.47
2023-04-02T19:39:06.806Z,6.59
2023-04-02T19:41:50.865Z,6.48
2023-04-02T19:44:18.103Z,6.49
2023-04-02T19:46:45.212Z,6.59
2023-04-02T19:49:16.982Z,6.69
2023-04-02T19:51:44.049Z,6.75
2023-04-02T19:54:11.155Z,6.70
2023-04-02T19:56:37.883Z,6.82
2023-04-02T19:59:17.317Z,6.88
2023-04-02T20:01:45.201Z,6.87
2023-04-02T20:04:11.919Z,6.90
2023-04-02T20:06:38.664Z,7.04
2023-04-02T20:09:05.607Z,6.72
2023-04-02T20:11:34.702Z,6.75
2023-04-02T20:14:01.665Z,6.65
2023-04-02T20:16:28.383Z,6.77
2023-04-02T20:18:55.060Z,6.67
2023-04-02T20:21:21.738Z,6.58
2023-04-02T20:23:48.444Z,6.65
2023-04-02T20:26:15.395Z,6.71
2023-04-02T20:28:42.155Z,6.69
2023-04-02T20:31:14.092Z,6.74
2023-04-02T20:33:41.422Z,6.69
2023-04-02T20:36:11.390Z,6.69
2023-04-02T20:38:38.721Z,6.61
2023-04-02T20:41:06.647Z,6.64
2023-04-02T20:43:33.343Z,6.72
2023-04-02T20:46:03.653Z,6.59
2023-04-02T20:48:30.892Z,6.58
2023-04-02T20:50:57.808Z,6.60
2023-04-02T20:53:24.499Z,6.55
2023-04-02T20:55:51.336Z,6.52
2023-04-02T20:58:18.927Z,6.49
2023-04-02T21:00:45.776Z,6.50
2023-04-02T21:03:12.648Z,6.56
2023-04-02T21:05:43.950Z,6.56
2023-04-02T21:08:11.085Z,6.66
2023-04-02T21:10:38.848Z,6.61
2023-04-02T21:13:05.777Z,6.58
2023-04-02T21:15:32.612Z,6.62
2023-04-02T21:17:59.310Z,6.65
2023-04-02T21:20:26.942Z,6.59
2023-04-02T21:22:53.817Z,6.60
2023-04-02T21:25:20.506Z,6.53
2023-04-02T21:27:47.152Z,6.53
2023-04-02T21:30:13.893Z,6.59
2023-04-02T21:32:40.621Z,6.54
2023-04-02T21:35:08.770Z,6.49
2023-04-02T21:37:35.689Z,6.61
2023-04-02T21:40:03.390Z,6.53
2023-04-02T21:42:30.136Z,6.57
2023-04-02T21:44:56.808Z,6.53
2023-04-02T21:47:23.677Z,6.55
2023-04-02T21:49:50.603Z,6.45
2023-04-02T21:52:17.611Z,6.47
2023-04-02T21:54:44.399Z,6.55
2023-04-02T21:57:11.302Z,6.51
2023-04-02T21:59:37.988Z,6.53
2023-04-02T22:02:05.106Z,6.61
2023-04-02T22:04:33.306Z,6.61
2023-04-02T22:07:00.328Z,6.65
2023-04-02T22:09:26.988Z,6.57
2023-04-02T22:11:56.012Z,6.60
2023-04-02T22:14:23.353Z,6.62
2023-04-02T22:16:50.288Z,6.61
2023-04-02T22:19:17.437Z,6.54
2023-04-02T22:21:44.193Z,6.65
2023-04-02T22:24:15.490Z,6.62
2023-04-02T22:26:42.297Z,6.59
2023-04-02T22:29:09.262Z,6.65
2023-04-02T22:31:36.010Z,6.57
2023-04-02T22:34:04.473Z,6.50
2023-04-02T22:36:31.492Z,6.46
2023-04-02T22:38:58.860Z,6.46
2023-04-02T22:41:27.594Z,6.46
2023-04-02T22:43:57.927Z,6.49
2023-04-02T22:46:25.954Z,6.48
2023-04-02T22:48:53.278Z,6.50
2023-04-02T22:51:21.089Z,6.49
2023-04-02T22:53:48.654Z,6.58
2023-04-02T22:56:22.036Z,6.49
2023-04-02T22:58:49.221Z,6.40
2023-04-02T23:01:27.805Z,6.45
2023-04-02T23:03:55.156Z,6.42
2023-04-02T23:06:22.389Z,6.41
2023-04-02T23:08:49.081Z,6.37
2023-04-02T23:11:18.310Z,6.41
2023-04-02T23:13:47.205Z,6.35
2023-04-02T23:16:14.670Z,6.29
2023-04-02T23:18:43.636Z,6.27
2023-04-02T23:21:10.388Z,6.29
2023-04-02T23:23:37.069Z,6.24
2023-04-02T23:26:16.851Z,6.24
2023-04-02T23:28:43.873Z,6.19
2023-04-02T23:31:13.913Z,6.17
2023-04-02T23:33:40.842Z,6.20
2023-04-02T23:36:18.557Z,6.13
2023-04-02T23:38:45.337Z,6.22
2023-04-02T23:41:16.863Z,6.16
2023-04-02T23:43:43.997Z,6.14
2023-04-02T23:46:10.867Z,6.09
2023-04-02T23:48:37.678Z,6.03
2023-04-02T23:51:04.743Z,6.01
2023-04-02T23:53:31.980Z,6.01
2023-04-02T23:55:58.785Z,5.99
2023-04-02T23:58:25.782Z,5.97
